Time;durP1;ratioP1;P1;durP2;ratioP2;P2;SDS_P1;SDS_P2;PMS_P1;PMS_P2;Temp;Humidity;BMP_temperature;BMP_pressure;BME280_temperature;BME280_humidity;BME280_pressure;Samples;Min_cycle;Max_cycle;Signal;HPM_P1;HPM_P2
2022/08/10 00:00:31;;;;;;;3.78;2.78;;;14.80;99.90;;;;;;5033844;28;20045;-65
2022/08/10 00:02:59;;;;;;;4.97;2.80;;;14.80;99.90;;;;;;5036738;28;20134;-64
2022/08/10 00:05:26;;;;;;;3.47;2.67;;;14.80;99.90;;;;;;5035877;28;20102;-65
2022/08/10 00:08:09;;;;;;;4.45;2.97;;;14.70;99.90;;;;;;5036449;28;20041;-65
2022/08/10 00:10:48;;;;;;;3.20;2.78;;;14.70;99.90;;;;;;5048590;28;20054;-67
2022/08/10 00:13:15;;;;;;;;;;;14.60;99.90;;;;;;5056312;28;20059;-67
2022/08/10 00:15:41;;;;;;;7.85;3.17;;;14.60;99.90;;;;;;5056476;28;20015;-66
2022/08/10 00:18:24;;;;;;;4.80;3.10;;;14.60;99.90;;;;;;5055904;28;20561;-66
2022/08/10 00:21:06;;;;;;;6.55;3.58;;;14.60;99.90;;;;;;5056206;28;20059;-66
2022/08/10 00:23:33;;;;;;;3.53;3.22;;;14.50;99.90;;;;;;5055362;28;20049;-66
2022/08/10 00:26:00;;;;;;;4.50;3.20;;;14.40;99.90;;;;;;5055789;28;20160;-65
2022/08/10 00:28:27;;;;;;;3.75;2.97;;;14.40;99.90;;;;;;5055503;28;20098;-65
2022/08/10 00:30:54;;;;;;;9.38;3.42;;;14.30;99.90;;;;;;5054639;28;20056;-65
2022/08/10 00:33:21;;;;;;;;;;;14.30;99.90;;;;;;5055203;28;20141;-67
2022/08/10 00:35:49;;;;;;;5.22;3.65;;;14.30;99.90;;;;;;5055359;28;19924;-66
2022/08/10 00:38:16;;;;;;;5.53;3.17;;;14.30;99.90;;;;;;5055044;28;20813;-67
2022/08/10 00:40:42;;;;;;;4.57;3.17;;;14.30;99.90;;;;;;5055330;28;20542;-65
2022/08/10 00:43:09;;;;;;;;;;;14.30;99.90;;;;;;5055796;28;20051;-65
2022/08/10 00:45:36;;;;;;;4.00;3.47;;;14.30;99.90;;;;;;5055216;28;19924;-68
2022/08/10 00:48:03;;;;;;;;;;;14.30;99.90;;;;;;5056200;28;20048;-63
2022/08/10 00:50:30;;;;;;;6.65;4.10;;;14.30;99.90;;;;;;5055179;28;19924;-66
2022/08/10 00:52:57;;;;;;;3.88;3.58;;;14.30;99.90;;;;;;5050766;28;20048;-64
2022/08/10 00:55:24;;;;;;;3.72;3.42;;;14.30;99.90;;;;;;5055008;28;20052;-65
2022/08/10 00:57:51;;;;;;;3.28;2.97;;;14.30;99.90;;;;;;5055164;28;20048;-63
2022/08/10 01:00:24;;;;;;;4.78;3.15;;;14.20;99.90;;;;;;5045723;28;20047;-67
2022/08/10 01:02:51;;;;;;;4.22;2.88;;;14.20;99.90;;;;;;5051364;28;20056;-64
2022/08/10 01:05:20;;;;;;;3.80;3.35;;;14.20;99.90;;;;;;5054033;28;20127;-67
2022/08/10 01:08:17;;;;;;;3.83;3.22;;;14.20;99.90;;;;;;5055512;28;20510;-65
2022/08/10 01:10:54;;;;;;;4.15;3.33;;;14.10;99.90;;;;;;5054142;28;20076;-64
2022/08/10 01:13:34;;;;;;;3.22;2.92;;;14.00;99.90;;;;;;5054747;28;20033;-67
2022/08/10 01:16:19;;;;;;;5.72;3.58;;;14.00;99.90;;;;;;5054476;28;20044;-64
2022/08/10 01:19:17;;;;;;;5.22;3.78;;;14.00;99.90;;;;;;5055184;28;20052;-68
2022/08/10 01:21:59;;;;;;;6.60;3.80;;;13.90;99.90;;;;;;5054646;28;22367;-67
2022/08/10 01:24:44;;;;;;;3.67;3.38;;;13.90;99.90;;;;;;5054438;28;20059;-65
2022/08/10 01:27:32;;;;;;;4.75;3.75;;;13.80;99.90;;;;;;5054579;28;20391;-66
2022/08/10 01:30:01;;;;;;;6.32;3.90;;;13.80;99.90;;;;;;5055158;28;20052;-65
2022/08/10 01:32:40;;;;;;;4.60;3.47;;;13.80;99.90;;;;;;5052783;28;20510;-67
2022/08/10 01:35:28;;;;;;;4.70;3.88;;;13.80;99.90;;;;;;5054573;28;20048;-65
2022/08/10 01:38:10;;;;;;;9.10;3.85;;;13.70;99.90;;;;;;5054936;28;21066;-68
2022/08/10 01:40:48;;;;;;;3.67;3.15;;;13.70;99.90;;;;;;5053684;28;20102;-65
2022/08/10 01:43:18;;;;;;;5.25;3.42;;;13.70;99.90;;;;;;5054013;28;20044;-68
2022/08/10 01:45:49;;;;;;;4.57;3.42;;;13.60;99.90;;;;;;5053832;28;20585;-67
2022/08/10 01:48:30;;;;;;;4.03;3.65;;;13.50;99.90;;;;;;5055189;28;20040;-66
2022/08/10 01:51:06;;;;;;;5.32;3.60;;;13.50;99.90;;;;;;5052722;28;20284;-67
2022/08/10 01:53:45;;;;;;;3.72;3.42;;;13.50;99.90;;;;;;5054122;28;20075;-65
2022/08/10 01:56:15;;;;;;;5.93;3.58;;;13.50;99.90;;;;;;5054422;28;20530;-66
2022/08/10 01:58:45;;;;;;;5.00;3.80;;;13.50;99.90;;;;;;5054697;28;20143;-67
2022/08/10 02:01:16;;;;;;;4.32;3.70;;;13.50;99.90;;;;;;5043844;28;20049;-68
2022/08/10 02:03:49;;;;;;;4.95;4.20;;;13.50;99.90;;;;;;5031312;28;20134;-66
2022/08/10 02:06:35;;;;;;;3.70;3.40;;;13.50;99.90;;;;;;5034358;28;20912;-64
2022/08/10 02:09:04;;;;;;;5.50;3.42;;;13.50;99.90;;;;;;5033855;28;20791;-66
2022/08/10 02:11:35;;;;;;;7.22;3.72;;;13.40;99.90;;;;;;5052912;28;20040;-66
2022/08/10 02:14:24;;;;;;;3.60;3.30;;;13.50;99.90;;;;;;5052730;28;20036;-68
2022/08/10 02:17:05;;;;;;;5.22;4.18;;;13.40;99.90;;;;;;5055211;28;20044;-65
2022/08/10 02:19:35;;;;;;;5.53;3.30;;;13.30;99.90;;;;;;5055557;28;20118;-66
2022/08/10 02:22:03;;;;;;;5.82;4.00;;;13.30;99.90;;;;;;5054947;28;20048;-65
2022/08/10 02:24:53;;;;;;;7.85;3.53;;;13.30;99.90;;;;;;5053707;28;20037;-66
2022/08/10 02:27:23;;;;;;;6.28;3.65;;;13.20;99.90;;;;;;5053299;28;20047;-65
2022/08/10 02:29:51;;;;;;;3.67;3.38;;;13.20;99.90;;;;;;5054365;28;20036;-66
2022/08/10 02:32:20;;;;;;;5.70;4.18;;;13.20;99.90;;;;;;5052224;28;20052;-68
2022/08/10 02:35:07;;;;;;;6.03;3.53;;;13.20;99.90;;;;;;5052428;28;20141;-66
2022/08/10 02:37:50;;;;;;;8.73;3.67;;;13.20;99.90;;;;;;5053804;28;20052;-66
2022/08/10 02:40:18;;;;;;;10.93;4.28;;;13.20;99.90;;;;;;5053852;28;20055;-65
2022/08/10 02:43:40;;;;;;;;;;;13.20;99.90;;;;;;5054266;28;20045;-64
2022/08/10 02:46:44;;;;;;;6.07;4.18;;;13.20;99.90;;;;;;5054513;28;19928;-62
2022/08/10 02:49:27;;;;;;;4.20;3.55;;;13.20;99.90;;;;;;5056928;28;20574;-60
2022/08/10 02:52:03;;;;;;;5.13;4.18;;;13.10;99.90;;;;;;5055210;28;20044;-64
2022/08/10 02:54:51;;;;;;;4.55;3.30;;;13.20;99.90;;;;;;5055577;28;20052;-68
2022/08/10 02:57:37;;;;;;;5.82;3.58;;;13.10;99.90;;;;;;5037023;28;20049;-65
2022/08/10 03:00:25;;;;;;;5.45;4.00;;;13.10;99.90;;;;;;5040436;28;20135;-65
2022/08/10 03:02:54;;;;;;;5.88;4.20;;;13.10;99.90;;;;;;5039541;28;20045;-67
2022/08/10 03:05:21;;;;;;;6.13;4.05;;;13.00;99.90;;;;;;5037630;28;20037;-64
2022/08/10 03:07:58;;;;;;;;;;;13.00;99.90;;;;;;5037698;28;20920;-67
2022/08/10 03:10:38;;;;;;;6.90;4.38;;;13.00;99.90;;;;;;5045436;28;19924;-65
2022/08/10 03:13:08;;;;;;;5.07;4.35;;;13.00;99.90;;;;;;5055852;28;21189;-66
2022/08/10 03:15:36;;;;;;;5.43;4.32;;;13.00;99.90;;;;;;5056356;28;20048;-64
2022/08/10 03:18:05;;;;;;;11.05;4.07;;;13.00;99.90;;;;;;5055744;28;21060;-65
2022/08/10 03:20:38;;;;;;;8.18;4.15;;;12.90;99.90;;;;;;5054962;28;20076;-68
2022/08/10 03:23:16;;;;;;;5.30;3.80;;;12.90;99.90;;;;;;5055386;28;20133;-66
2022/08/10 03:25:44;;;;;;;7.22;4.25;;;12.90;99.90;;;;;;5056421;28;20044;-67
2022/08/10 03:28:26;;;;;;;3.88;3.58;;;12.90;99.90;;;;;;5057345;28;20047;-66
2022/08/10 03:30:54;;;;;;;5.82;4.63;;;12.90;99.90;;;;;;5055318;28;20040;-67
2022/08/10 03:33:23;;;;;;;6.18;4.70;;;12.80;99.90;;;;;;5055647;28;20430;-68
2022/08/10 03:35:50;;;;;;;15.75;4.18;;;12.80;99.90;;;;;;5055684;28;20044;-66
2022/08/10 03:38:39;;;;;;;4.55;4.13;;;12.80;99.90;;;;;;5056275;28;20084;-65
2022/08/10 03:41:11;;;;;;;4.57;4.18;;;12.80;99.90;;;;;;5055585;28;20044;-67
2022/08/10 03:43:47;;;;;;;9.02;3.88;;;12.80;99.90;;;;;;5056201;28;20048;-66
2022/08/10 03:46:18;;;;;;;11.07;4.03;;;12.80;99.90;;;;;;5056508;28;20510;-66
2022/08/10 03:48:48;;;;;;;6.32;4.53;;;12.80;99.90;;;;;;5057112;28;20550;-63
2022/08/10 03:51:18;;;;;;;4.28;3.75;;;12.70;99.90;;;;;;5054365;28;20068;-62
2022/08/10 03:53:46;;;;;;;4.95;4.25;;;12.70;99.90;;;;;;5056378;28;20048;-62
2022/08/10 03:56:38;;;;;;;4.95;4.50;;;12.70;99.90;;;;;;5055021;28;20045;-62
2022/08/10 03:59:11;;;;;;;5.35;4.30;;;12.70;99.90;;;;;;5056027;28;20058;-62
2022/08/10 04:01:38;;;;;;;5.55;4.53;;;12.80;99.90;;;;;;5053661;28;20460;-62
2022/08/10 04:04:26;;;;;;;7.18;4.22;;;12.80;99.90;;;;;;5034414;28;20049;-61
2022/08/10 04:06:55;;;;;;;6.13;3.83;;;12.80;99.90;;;;;;5034432;28;20111;-61
2022/08/10 04:09:34;;;;;;;6.00;4.47;;;12.80;99.90;;;;;;5036663;28;20048;-61
2022/08/10 04:12:21;;;;;;;;;;;12.80;99.90;;;;;;5055799;28;20056;-61
2022/08/10 04:14:48;;;;;;;5.38;4.25;;;12.80;99.90;;;;;;5055267;28;20315;-61
2022/08/10 04:17:24;;;;;;;5.85;4.45;;;12.80;99.90;;;;;;5055903;28;20040;-60
2022/08/10 04:20:28;;;;;;;7.70;4.05;;;12.70;99.90;;;;;;5056292;28;20076;-60
2022/08/10 04:23:06;;;;;;;14.13;4.03;;;12.70;99.90;;;;;;5052888;28;20052;-61
2022/08/10 04:25:35;;;;;;;5.80;4.35;;;12.70;99.90;;;;;;5054688;28;20055;-62
2022/08/10 04:28:02;;;;;;;4.30;3.90;;;12.70;99.90;;;;;;5055756;28;20044;-60
2022/08/10 04:30:30;;;;;;;4.40;4.00;;;12.70;99.90;;;;;;5054489;28;20036;-62
2022/08/10 04:33:01;;;;;;;4.97;4.18;;;12.70;99.90;;;;;;5053840;28;20909;-60
2022/08/10 04:35:28;;;;;;;4.53;4.10;;;12.70;99.90;;;;;;5053921;28;20081;-61
2022/08/10 04:37:56;;;;;;;9.40;5.05;;;12.70;99.90;;;;;;5055060;28;20178;-60
2022/08/10 04:40:24;;;;;;;4.75;4.30;;;12.80;99.90;;;;;;5055090;28;20094;-61
2022/08/10 04:42:58;;;;;;;5.05;4.30;;;12.80;99.90;;;;;;5053774;28;20200;-60
2022/08/10 04:45:27;;;;;;;4.50;3.70;;;12.90;99.90;;;;;;5054618;28;20586;-60
2022/08/10 04:48:14;;;;;;;5.50;4.07;;;12.90;99.90;;;;;;5054910;28;20052;-60
2022/08/10 04:51:01;;;;;;;5.63;4.10;;;13.00;99.90;;;;;;5054541;28;20048;-60
2022/08/10 04:53:28;;;;;;;6.78;4.55;;;13.10;99.90;;;;;;5053990;28;20040;-61
2022/08/10 04:55:54;;;;;;;;;;;13.10;99.90;;;;;;5054998;28;20546;-61
2022/08/10 04:58:21;;;;;;;5.80;4.50;;;13.10;99.90;;;;;;5055131;28;20052;-61
2022/08/10 05:00:48;;;;;;;;;;;13.10;99.90;;;;;;5054955;28;20052;-61
2022/08/10 05:03:15;;;;;;;4.65;4.03;;;13.20;99.90;;;;;;5050891;28;19924;-51
2022/08/10 05:05:42;;;;;;;;;;;13.20;99.90;;;;;;5034400;28;20041;-51
2022/08/10 05:08:08;;;;;;;4.47;4.07;;;13.20;99.90;;;;;;5034118;28;19986;-50
2022/08/10 05:10:35;;;;;;;;;;;13.30;99.90;;;;;;5046396;28;20733;-49
2022/08/10 05:13:02;;;;;;;6.55;4.38;;;13.30;99.90;;;;;;5051471;28;19925;-58
2022/08/10 05:15:29;;;;;;;5.78;5.13;;;13.40;99.90;;;;;;5054195;28;20078;-48
2022/08/10 05:17:55;;;;;;;;;;;13.40;99.90;;;;;;5054884;28;20686;-52
2022/08/10 05:20:35;;;;;;;10.63;4.20;;;13.50;99.90;;;;;;5053970;28;20012;-51
2022/08/10 05:23:02;;;;;;;5.32;4.65;;;13.50;99.90;;;;;;5052238;28;20040;-53
2022/08/10 05:25:29;;;;;;;;;;;13.70;99.90;;;;;;5054625;28;20059;-50
2022/08/10 05:27:59;;;;;;;7.30;4.63;;;13.70;99.90;;;;;;5054020;28;20634;-49
2022/08/10 05:30:32;;;;;;;4.30;3.90;;;13.80;99.90;;;;;;5053590;28;20056;-50
2022/08/10 05:32:59;;;;;;;4.68;4.28;;;13.80;99.90;;;;;;5053362;28;20098;-51
2022/08/10 05:35:32;;;;;;;6.93;4.68;;;13.90;99.90;;;;;;5052211;28;20052;-51
2022/08/10 05:38:21;;;;;;;5.25;4.75;;;14.00;99.90;;;;;;5053026;28;20048;-51
2022/08/10 05:40:49;;;;;;;9.15;5.00;;;14.10;99.90;;;;;;5053677;28;20068;-51
2022/08/10 05:43:18;;;;;;;5.47;4.35;;;14.10;99.90;;;;;;5051855;28;20105;-51
2022/08/10 05:45:46;;;;;;;5.03;4.40;;;14.20;99.90;;;;;;5054032;28;20741;-51
2022/08/10 05:48:34;;;;;;;5.43;4.57;;;14.30;99.90;;;;;;5053468;28;20741;-51
2022/08/10 05:51:21;;;;;;;;;;;14.30;99.90;;;;;;5053580;28;20044;-54
2022/08/10 05:53:49;;;;;;;5.30;4.65;;;14.40;99.90;;;;;;5052504;28;19989;-55
2022/08/10 05:56:36;;;;;;;9.55;4.38;;;14.50;99.90;;;;;;5053467;28;20158;-51
2022/08/10 05:59:25;;;;;;;4.80;4.30;;;14.50;99.90;;;;;;5052414;28;20049;-53
2022/08/10 06:02:19;;;;;;;7.72;4.25;;;14.60;99.90;;;;;;5052122;28;20055;-53
2022/08/10 06:05:11;;;;;;;5.55;4.60;;;14.70;99.90;;;;;;5032440;28;20103;-53
2022/08/10 06:07:48;;;;;;;;;;;14.80;99.90;;;;;;5033323;28;20886;-57
2022/08/10 06:10:16;;;;;;;8.15;5.22;;;14.90;99.90;;;;;;5052207;28;19959;-52
2022/08/10 06:16:04;;;;;;;11.55;4.47;;;15.10;99.90;;;;;;5033189;28;20567;-52
2022/08/10 06:18:32;;;;;;;5.88;4.78;;;15.20;99.90;;;;;;5033087;28;20708;-52
2022/08/10 06:20:59;;;;;;;6.93;4.13;;;15.30;99.90;;;;;;5033172;28;20045;-54
2022/08/10 06:23:28;;;;;;;5.28;4.57;;;15.40;99.90;;;;;;5031861;28;20087;-56
2022/08/10 06:25:55;;;;;;;6.68;4.00;;;15.40;99.90;;;;;;5033331;28;20051;-56
2022/08/10 06:29:06;;;;;;;7.03;4.93;;;15.50;99.90;;;;;;5031891;28;20037;-55
2022/08/10 06:31:41;;;;;;;12.90;4.93;;;15.60;99.90;;;;;;5032758;28;20133;-57
2022/08/10 06:34:21;;;;;;;4.88;4.32;;;15.70;99.90;;;;;;5050030;28;20044;-56
2022/08/10 06:36:49;;;;;;;7.32;4.57;;;15.90;99.90;;;;;;5053160;28;20086;-53
2022/08/10 06:39:16;;;;;;;9.15;4.80;;;16.00;99.90;;;;;;5053336;28;20067;-54
2022/08/10 06:42:29;;;;;;;7.03;4.13;;;16.10;99.90;;;;;;5051870;28;20135;-54
2022/08/10 06:44:59;;;;;;;4.90;4.43;;;16.20;99.90;;;;;;5053431;28;20299;-54
2022/08/10 06:47:58;;;;;;;10.35;5.65;;;16.30;99.90;;;;;;5051605;28;20174;-54
2022/08/10 06:50:45;;;;;;;5.32;4.10;;;16.40;99.90;;;;;;5047364;28;20045;-55
2022/08/10 06:53:31;;;;;;;5.90;3.80;;;16.60;99.90;;;;;;5032807;28;20495;-55
2022/08/10 06:56:20;;;;;;;10.25;5.10;;;16.70;99.90;;;;;;5047443;28;20924;-56
2022/08/10 06:59:19;;;;;;;14.15;4.68;;;16.90;99.90;;;;;;5032450;28;20858;-52
2022/08/10 07:01:57;;;;;;;7.03;4.00;;;17.00;99.90;;;;;;5031357;28;20414;-63
2022/08/10 07:04:32;;;;;;;9.98;4.45;;;17.10;99.90;;;;;;5032249;28;20045;-62
2022/08/10 07:07:05;;;;;;;8.82;4.45;;;17.20;99.90;;;;;;5034321;28;20044;-63
2022/08/10 07:09:37;;;;;;;11.98;5.18;;;17.30;99.90;;;;;;5034667;28;20574;-63
2022/08/10 07:12:06;;;;;;;5.65;4.30;;;17.40;99.90;;;;;;5051503;28;20051;-62
2022/08/10 07:14:42;;;;;;;6.93;4.60;;;17.50;99.90;;;;;;5050540;28;20071;-63
2022/08/10 07:17:12;;;;;;;7.32;4.60;;;17.70;99.90;;;;;;5052450;28;20049;-63
2022/08/10 07:19:45;;;;;;;9.88;4.25;;;17.80;99.90;;;;;;5053198;28;20056;-62
2022/08/10 07:22:19;;;;;;;7.50;3.80;;;18.00;99.90;;;;;;5051920;28;20033;-62
2022/08/10 07:25:08;;;;;;;8.55;3.90;;;18.10;99.90;;;;;;5051979;28;20890;-62
2022/08/10 07:27:38;;;;;;;9.40;4.00;;;18.30;99.90;;;;;;5052040;28;20048;-65
2022/08/10 07:30:28;;;;;;;6.68;4.18;;;18.50;99.90;;;;;;5038539;28;20884;-66
2022/08/10 07:32:56;;;;;;;7.63;4.28;;;18.60;99.90;;;;;;5055897;28;20110;-63
2022/08/10 07:35:25;;;;;;;7.15;4.57;;;18.80;99.90;;;;;;5055416;28;20045;-66
2022/08/10 07:37:53;;;;;;;4.30;3.50;;;18.90;99.90;;;;;;5059101;28;20048;-66
2022/08/10 07:40:22;;;;;;;5.93;3.80;;;19.00;99.90;;;;;;5059090;28;20047;-66
2022/08/10 07:42:55;;;;;;;8.13;4.07;;;19.20;99.90;;;;;;5058798;28;20052;-67
2022/08/10 07:45:24;;;;;;;8.07;3.90;;;19.30;99.90;;;;;;5056049;28;20530;-65
2022/08/10 07:47:57;;;;;;;3.88;3.15;;;19.40;99.90;;;;;;5056889;28;20048;-64
2022/08/10 07:50:29;;;;;;;4.53;3.67;;;19.60;99.90;;;;;;5055239;28;20121;-64
2022/08/10 07:53:05;;;;;;;5.95;3.63;;;19.70;99.90;;;;;;5055325;28;20048;-65
2022/08/10 07:55:34;;;;;;;4.95;3.78;;;19.80;99.90;;;;;;5054837;28;20036;-64
2022/08/10 07:58:27;;;;;;;8.90;3.83;;;19.90;99.90;;;;;;5054186;28;20059;-65
2022/08/10 08:00:56;;;;;;;7.28;3.50;;;20.10;99.90;;;;;;5055618;28;20133;-64
2022/08/10 08:03:24;;;;;;;8.63;3.85;;;20.20;99.90;;;;;;5054482;28;20051;-63
2022/08/10 08:05:51;;;;;;;6.03;3.60;;;20.70;99.90;;;;;;5055555;28;20052;-63
2022/08/10 08:08:31;;;;;;;9.95;3.20;;;21.30;99.90;;;;;;5036387;28;20048;-64
2022/08/10 08:10:59;;;;;;;6.00;4.25;;;21.80;99.90;;;;;;5049622;28;20127;-64
2022/08/10 08:13:28;;;;;;;4.38;3.40;;;22.40;99.90;;;;;;5055023;28;20032;-63
2022/08/10 08:15:57;;;;;;;6.97;3.28;;;22.70;99.90;;;;;;5055195;28;20036;-64
2022/08/10 08:18:46;;;;;;;4.45;3.20;;;23.00;99.90;;;;;;5055842;28;20554;-64
2022/08/10 08:21:33;;;;;;;4.93;3.10;;;23.40;98.10;;;;;;5053241;28;20048;-63
2022/08/10 08:24:22;;;;;;;8.55;3.80;;;23.50;97.50;;;;;;5055334;28;20040;-65
2022/08/10 08:27:01;;;;;;;8.95;3.45;;;23.80;93.30;;;;;;5054684;28;20791;-65
2022/08/10 08:29:30;;;;;;;6.97;3.70;;;24.00;92.90;;;;;;5055416;28;20047;-64
2022/08/10 08:31:58;;;;;;;8.23;3.22;;;23.90;92.90;;;;;;5054868;28;20044;-65
2022/08/10 08:34:31;;;;;;;7.30;3.33;;;24.10;95.10;;;;;;5048705;28;20594;-65
2022/08/10 08:36:59;;;;;;;3.70;2.22;;;24.30;95.50;;;;;;5033821;28;20052;-65
2022/08/10 08:39:27;;;;;;;4.70;2.83;;;24.60;91.20;;;;;;5047380;28;20143;-66
2022/08/10 08:42:09;;;;;;;5.95;2.72;;;24.80;81.30;;;;;;5052816;28;20072;-65
2022/08/10 08:44:54;;;;;;;6.10;2.83;;;24.90;79.90;;;;;;5034199;28;20856;-64
2022/08/10 08:48:00;;;;;;;5.78;2.58;;;25.10;74.30;;;;;;5035418;28;20082;-65
2022/08/10 08:50:44;;;;;;;10.30;3.25;;;25.10;70.80;;;;;;5042065;28;20843;-64
2022/08/10 08:53:27;;;;;;;6.85;3.40;;;25.20;68.30;;;;;;5055583;28;20537;-63
2022/08/10 08:56:23;;;;;;;4.88;3.35;;;25.20;73.00;;;;;;5052804;28;20063;-63
2022/08/10 08:59:12;;;;;;;6.03;4.05;;;25.20;70.70;;;;;;5055469;28;20101;-64
2022/08/10 09:02:10;;;;;;;7.13;3.08;;;25.10;74.00;;;;;;5054703;28;20045;-64
2022/08/10 09:04:56;;;;;;;4.78;2.92;;;24.90;74.00;;;;;;5055432;28;20429;-64
2022/08/10 09:07:38;;;;;;;3.30;2.30;;;24.70;75.80;;;;;;5053789;28;20069;-64
2022/08/10 09:10:40;;;;;;;6.93;2.90;;;24.60;68.60;;;;;;5054342;28;20106;-65
2022/08/10 09:13:25;;;;;;;4.13;2.30;;;24.60;67.10;;;;;;5053347;28;20044;-64
2022/08/10 09:16:14;;;;;;;3.10;2.28;;;24.60;68.10;;;;;;5052935;28;20052;-64
2022/08/10 09:19:06;;;;;;;10.52;2.33;;;24.70;72.60;;;;;;5055013;28;21061;-65
2022/08/10 09:21:50;;;;;;;4.72;2.35;;;25.00;76.90;;;;;;5054554;28;20059;-64
2022/08/10 09:24:57;;;;;;;5.78;2.45;;;25.40;72.00;;;;;;5052332;28;20045;-65
2022/08/10 09:27:45;;;;;;;3.33;2.17;;;25.50;65.70;;;;;;5053695;28;20045;-65
2022/08/10 09:30:21;;;;;;;5.57;2.33;;;25.70;63.50;;;;;;5048762;28;20040;-63
2022/08/10 09:33:06;;;;;;;5.13;1.80;;;25.70;63.20;;;;;;5054773;28;20087;-64
2022/08/10 09:36:06;;;;;;;3.97;2.60;;;25.90;60.90;;;;;;5054783;28;20109;-63
2022/08/10 09:39:06;;;;;;;2.67;1.95;;;26.00;60.60;;;;;;5054399;28;20063;-63
2022/08/10 09:41:53;;;;;;;5.18;2.55;;;26.20;62.90;;;;;;5054774;28;20049;-63
2022/08/10 09:44:51;;;;;;;5.28;2.40;;;26.40;60.30;;;;;;5033600;28;20053;-63
2022/08/10 09:47:30;;;;;;;7.07;2.03;;;26.60;59.00;;;;;;5034011;28;20049;-63
2022/08/10 09:50:48;;;;;;;2.85;2.17;;;26.70;59.10;;;;;;5038942;28;20582;-63
2022/08/10 09:53:47;;;;;;;4.30;1.67;;;26.70;58.50;;;;;;5025339;28;20114;-63
2022/08/10 09:56:19;;;;;;;2.33;1.60;;;26.90;57.00;;;;;;5046704;28;20388;-63
2022/08/10 09:59:17;;;;;;;1.80;1.55;;;27.00;56.30;;;;;;5054260;28;20052;-63
2022/08/10 10:02:26;;;;;;;7.43;2.17;;;27.10;56.10;;;;;;5053043;28;20076;-63
2022/08/10 10:05:51;;;;;;;2.67;2.03;;;27.40;53.00;;;;;;5053349;28;20040;-63
2022/08/10 10:08:31;;;;;;;4.53;2.45;;;27.60;53.00;;;;;;5005142;28;20064;-66
2022/08/10 10:11:01;;;;;;;2.47;2.13;;;27.60;55.20;;;;;;5054195;28;20048;-62
2022/08/10 10:13:38;;;;;;;3.25;1.85;;;27.80;55.70;;;;;;5052537;28;20499;-62
2022/08/10 10:16:51;;;;;;;2.47;1.92;;;28.00;53.60;;;;;;5053797;28;20044;-63
2022/08/10 10:19:36;;;;;;;4.35;2.05;;;28.10;52.40;;;;;;5052193;28;20113;-62
2022/08/10 10:22:09;;;;;;;2.55;1.65;;;28.20;52.00;;;;;;5054007;28;20832;-63
2022/08/10 10:24:49;;;;;;;2.60;1.98;;;28.10;52.10;;;;;;5053222;28;20071;-63
2022/08/10 10:27:39;;;;;;;5.45;1.90;;;28.10;53.10;;;;;;5053910;28;20068;-63
2022/08/10 10:30:10;;;;;;;6.82;3.42;;;28.10;52.00;;;;;;5053054;28;20055;-63
2022/08/10 10:32:57;;;;;;;3.10;1.92;;;28.10;51.00;;;;;;5051721;28;20931;-62
2022/08/10 10:35:36;;;;;;;3.45;2.03;;;28.20;50.10;;;;;;5052595;28;20495;-63
2022/08/10 10:38:09;;;;;;;2.88;1.67;;;28.20;50.60;;;;;;5052254;28;20052;-63
2022/08/10 10:41:01;;;;;;;5.57;2.00;;;28.30;51.40;;;;;;5052336;28;20049;-65
2022/08/10 10:43:37;;;;;;;6.97;1.85;;;28.40;51.70;;;;;;5053454;28;20044;-64
2022/08/10 10:46:23;;;;;;;4.10;2.28;;;28.50;52.30;;;;;;5054359;28;20155;-64
2022/08/10 10:48:58;;;;;;;6.78;3.33;;;28.60;51.00;;;;;;5053519;28;20586;-66
2022/08/10 10:51:36;;;;;;;2.63;1.58;;;28.60;52.10;;;;;;5052479;28;20669;-65
2022/08/10 10:54:20;;;;;;;2.80;1.63;;;28.60;51.90;;;;;;5051919;28;20045;-64
2022/08/10 10:57:06;;;;;;;4.00;2.00;;;28.70;51.30;;;;;;5051673;28;20072;-67
2022/08/10 10:59:47;;;;;;;3.20;1.77;;;28.70;50.90;;;;;;5053410;28;20040;-65
2022/08/10 11:02:49;;;;;;;6.75;2.03;;;28.70;51.40;;;;;;5053275;28;20041;-64
2022/08/10 11:05:51;;;;;;;3.03;1.95;;;28.80;50.70;;;;;;5052889;28;20118;-64
2022/08/10 11:08:23;;;;;;;5.75;2.08;;;28.90;50.90;;;;;;5047429;28;20800;-64
2022/08/10 11:11:08;;;;;;;4.25;1.70;;;28.90;48.80;;;;;;5056380;28;20046;-64
2022/08/10 11:14:15;;;;;;;4.43;2.55;;;28.90;50.40;;;;;;5043101;28;20067;-64
2022/08/10 11:17:10;;;;;;;5.68;1.38;;;29.10;48.40;;;;;;5056140;28;20462;-64
2022/08/10 11:19:49;;;;;;;3.00;1.77;;;29.00;48.30;;;;;;5056358;28;20052;-63
2022/08/10 11:22:46;;;;;;;3.35;1.60;;;29.00;48.40;;;;;;5056570;28;20028;-64
2022/08/10 11:25:26;;;;;;;2.70;1.83;;;29.00;48.30;;;;;;5056489;28;20062;-63
2022/08/10 11:28:16;;;;;;;4.32;1.83;;;29.00;48.60;;;;;;5056664;28;20036;-64
2022/08/10 11:30:53;;;;;;;4.28;1.42;;;29.20;49.50;;;;;;5056261;28;20453;-64
2022/08/10 11:33:45;;;;;;;3.85;1.90;;;29.30;49.50;;;;;;5054298;28;20045;-64
2022/08/10 11:36:50;;;;;;;2.00;1.55;;;29.30;47.60;;;;;;5054645;28;20052;-69
2022/08/10 11:39:39;;;;;;;7.88;2.05;;;29.20;48.60;;;;;;5056535;28;20059;-64
2022/08/10 11:42:30;;;;;;;2.70;1.83;;;29.20;47.90;;;;;;5050862;28;20111;-64
2022/08/10 11:45:09;;;;;;;4.05;1.35;;;29.20;47.90;;;;;;5044669;28;20056;-65
2022/08/10 11:48:03;;;;;;;5.50;1.70;;;29.30;48.40;;;;;;5034956;28;20045;-66
2022/08/10 11:50:46;;;;;;;3.50;1.80;;;29.30;48.30;;;;;;5044012;28;20052;-65
2022/08/10 11:53:25;;;;;;;3.08;1.52;;;29.30;47.80;;;;;;5054493;28;20143;-65
2022/08/10 11:56:09;;;;;;;1.90;1.63;;;29.30;48.20;;;;;;5056281;28;20041;-66
2022/08/10 12:01:44;;;;;;;4.50;1.73;;;29.50;48.00;;;;;;5055417;28;20062;-67
2022/08/10 12:04:12;;;;;;;3.88;1.83;;;29.50;48.40;;;;;;5054464;28;20052;-65
2022/08/10 12:06:42;;;;;;;3.63;1.40;;;29.60;47.90;;;;;;5054677;28;20048;-64
2022/08/10 12:09:26;;;;;;;7.50;1.73;;;29.60;46.60;;;;;;5055024;28;20083;-64
2022/08/10 12:12:15;;;;;;;1.77;1.50;;;29.50;47.20;;;;;;5044953;28;20847;-63
2022/08/10 12:15:09;;;;;;;3.50;1.63;;;29.50;46.10;;;;;;5048178;28;20131;-64
2022/08/10 12:17:56;;;;;;;6.35;1.90;;;29.40;47.30;;;;;;5054484;28;20044;-64
2022/08/10 12:20:36;;;;;;;6.03;1.92;;;29.30;46.30;;;;;;5055531;28;20550;-65
2022/08/10 12:23:18;;;;;;;3.53;1.40;;;29.40;46.30;;;;;;5054503;28;20143;-65
2022/08/10 12:26:22;;;;;;;3.22;1.42;;;29.50;46.00;;;;;;5054143;28;20067;-64
2022/08/10 12:29:07;;;;;;;2.47;1.60;;;29.60;46.10;;;;;;5051711;28;20045;-65
2022/08/10 12:31:46;;;;;;;3.80;1.60;;;29.70;47.60;;;;;;5054418;28;20674;-64
2022/08/10 12:34:42;;;;;;;3.60;2.00;;;29.70;46.60;;;;;;5054455;28;20040;-66
2022/08/10 12:37:32;;;;;;;4.50;1.80;;;29.60;46.60;;;;;;5054681;28;20128;-65
2022/08/10 12:40:09;;;;;;;1.48;1.33;;;29.50;45.80;;;;;;5052679;28;20064;-65
2022/08/10 12:43:14;;;;;;;4.30;1.33;;;29.40;46.40;;;;;;5055383;28;20049;-64
2022/08/10 12:46:16;;;;;;;3.13;1.48;;;29.70;47.10;;;;;;5058064;28;20049;-64
2022/08/10 12:49:07;;;;;;;2.58;1.73;;;29.90;46.30;;;;;;5058712;28;20506;-64
2022/08/10 12:51:36;;;;;;;2.78;1.60;;;30.00;45.70;;;;;;5056234;28;20032;-65
2022/08/10 12:54:11;;;;;;;5.28;1.48;;;30.10;45.10;;;;;;5054775;28;20282;-65
2022/08/10 12:56:46;;;;;;;2.97;1.60;;;30.10;46.20;;;;;;5037036;28;20442;-64
2022/08/10 12:59:14;;;;;;;2.42;1.73;;;30.20;45.20;;;;;;5054214;28;20048;-65
2022/08/10 13:01:45;;;;;;;3.10;1.67;;;30.20;46.20;;;;;;5054498;28;20048;-65
2022/08/10 13:04:35;;;;;;;4.93;1.50;;;30.30;46.30;;;;;;5052726;28;20323;-65
2022/08/10 13:07:04;;;;;;;4.18;2.00;;;30.30;46.10;;;;;;5053955;28;20048;-64
2022/08/10 13:09:34;;;;;;;4.18;1.30;;;30.30;45.80;;;;;;5051947;28;20048;-65
2022/08/10 13:12:24;;;;;;;3.70;1.88;;;30.30;45.10;;;;;;5045687;28;20721;-64
2022/08/10 13:15:24;;;;;;;4.55;1.42;;;30.40;43.80;;;;;;5033430;28;20041;-64
2022/08/10 13:18:14;;;;;;;4.18;1.63;;;30.30;45.90;;;;;;5035467;28;20671;-63
2022/08/10 13:20:50;;;;;;;2.30;1.60;;;30.20;45.50;;;;;;5034496;28;20095;-64
2022/08/10 13:23:25;;;;;;;2.47;1.50;;;30.30;45.40;;;;;;5053969;28;20048;-64
2022/08/10 13:25:55;;;;;;;1.98;1.50;;;30.40;44.30;;;;;;5054475;28;20044;-64
2022/08/10 13:28:41;;;;;;;2.33;1.13;;;30.50;43.90;;;;;;5051052;28;20043;-66
2022/08/10 13:31:27;;;;;;;1.80;1.20;;;30.50;43.40;;;;;;5054580;28;20048;-64
2022/08/10 13:34:19;;;;;;;3.00;1.98;;;30.60;44.10;;;;;;5053524;28;20057;-64
2022/08/10 13:37:08;;;;;;;2.33;1.35;;;30.60;42.90;;;;;;5054207;28;20151;-64
2022/08/10 13:39:38;;;;;;;2.63;1.45;;;30.60;44.20;;;;;;5053843;28;20441;-64
2022/08/10 13:42:32;;;;;;;2.35;1.30;;;30.60;43.20;;;;;;5053813;28;20055;-65
2022/08/10 13:45:09;;;;;;;2.22;1.50;;;30.80;43.70;;;;;;5051341;28;20076;-65
2022/08/10 13:47:37;;;;;;;5.18;1.30;;;30.80;42.20;;;;;;5054461;28;20048;-65
2022/08/10 13:50:27;;;;;;;1.70;1.27;;;30.90;42.20;;;;;;5053833;28;20040;-64
2022/08/10 13:53:03;;;;;;;4.70;1.30;;;31.00;41.50;;;;;;5048956;28;20578;-65
2022/08/10 13:55:53;;;;;;;2.28;1.25;;;30.90;41.30;;;;;;5054694;28;20043;-66
2022/08/10 13:58:29;;;;;;;2.38;1.40;;;30.90;41.50;;;;;;5052488;28;20459;-65